Time;durP1;ratioP1;P1;durP2;ratioP2;P2;SDS_P1;SDS_P2;PMS_P1;PMS_P2;Temp;Humidity;BMP_temperature;BMP_pressure;BME280_temperature;BME280_humidity;BME280_pressure;Samples;Min_cycle;Max_cycle;Signal;HPM_P1;HPM_P2
2023/05/18 00:02:04;;;;;;;4.75;4.45;;;;;;;6.06;82.23;101995.53;6114746;23;20644;-69
2023/05/18 00:04:36;;;;;;;4.35;4.07;;;;;;;6.47;82.28;102069.75;6115855;23;20471;-70
2023/05/18 00:07:03;;;;;;;4.82;4.43;;;;;;;6.54;83.48;102084.44;6121878;23;20080;-72
2023/05/18 00:09:34;;;;;;;4.50;4.10;;;;;;;6.35;83.63;102062.94;6113269;23;20025;-69
2023/05/18 00:12:02;;;;;;;5.10;4.70;;;;;;;6.45;82.84;102092.38;6088189;23;20546;-69
2023/05/18 00:14:29;;;;;;;9.48;4.85;;;;;;;6.12;83.64;102038.03;6115136;23;20059;-72
2023/05/18 00:16:56;;;;;;;6.05;4.85;;;;;;;6.45;83.24;102088.00;6086047;23;20030;-70
2023/05/18 00:19:23;;;;;;;4.30;4.07;;;;;;;6.42;84.06;102085.47;6114243;23;20041;-70
2023/05/18 00:21:51;;;;;;;4.63;4.32;;;;;;;5.93;83.41;102016.50;6085814;23;20041;-72
2023/05/18 00:24:18;;;;;;;4.65;4.38;;;;;;;6.36;84.38;102088.13;6105543;23;20035;-70
2023/05/18 00:26:46;;;;;;;4.22;4.03;;;;;;;6.32;84.55;102089.91;6098427;23;20049;-70
2023/05/18 00:29:12;;;;;;;8.20;4.38;;;;;;;6.33;84.20;102089.00;6114941;23;20021;-70
2023/05/18 00:31:39;;;;;;;4.13;3.92;;;;;;;6.24;84.21;102078.72;6120347;23;20046;-71
2023/05/18 00:34:09;;;;;;;5.55;4.65;;;;;;;6.01;85.11;102041.63;6121058;23;20036;-70
2023/05/18 00:36:36;;;;;;;6.03;4.40;;;;;;;6.15;84.80;102073.59;6101349;23;20009;-71
2023/05/18 00:39:05;;;;;;;4.43;4.13;;;;;;;6.11;85.50;102077.97;6097049;23;20034;-71
2023/05/18 00:41:31;;;;;;;4.55;4.30;;;;;;;6.13;86.14;102093.59;6092510;23;20419;-70
2023/05/18 00:43:59;;;;;;;4.38;4.10;;;;;;;5.99;85.01;102080.72;6121933;23;20985;-70
2023/05/18 00:46:27;;;;;;;4.70;4.40;;;;;;;5.98;86.05;102082.47;6124084;23;20037;-71
2023/05/18 00:48:56;;;;;;;14.85;4.03;;;;;;;6.01;86.34;102096.34;6098559;23;20010;-71
2023/05/18 00:51:23;;;;;;;9.07;4.93;;;;;;;5.71;86.53;102046.25;6110462;23;20029;-71
2023/05/18 00:53:51;;;;;;;5.63;4.60;;;;;;;5.69;86.70;102048.00;6123281;23;20052;-70
2023/05/18 00:56:22;;;;;;;4.15;3.95;;;;;;;5.46;86.93;102035.22;6084558;23;20021;-70
2023/05/18 00:58:54;;;;;;;4.75;4.45;;;;;;;5.38;88.05;102022.28;6122057;23;20413;-70
2023/05/18 01:01:28;;;;;;;15.70;4.57;;;;;;;5.74;88.50;102098.34;6126757;23;20064;-70
2023/05/18 01:03:56;;;;;;;5.22;4.82;;;;;;;5.72;88.26;102092.28;6122474;23;20040;-70
2023/05/18 01:06:25;;;;;;;4.55;4.32;;;;;;;5.38;89.07;102049.16;6111144;23;20057;-71
2023/05/18 01:08:53;;;;;;;4.50;4.15;;;;;;;5.67;90.03;102105.31;6089521;23;20026;-71
2023/05/18 01:11:23;;;;;;;4.65;4.30;;;;;;;5.68;88.65;102093.19;6114698;23;20408;-71
2023/05/18 01:14:17;;;;;;;4.72;4.43;;;;;;;5.39;89.64;102050.03;6115120;23;20041;-71
2023/05/18 01:17:32;;;;;;;3.97;3.78;;;;;;;5.68;89.00;102088.84;6090597;23;20510;-71
2023/05/18 01:20:23;;;;;;;5.07;4.78;;;;;;;5.63;88.55;102089.75;6121108;23;20110;-70
2023/05/18 01:23:11;;;;;;;4.20;3.90;;;;;;;5.62;88.91;102099.31;6092202;23;20089;-71
2023/05/18 01:25:52;;;;;;;5.05;4.65;;;;;;;5.58;89.35;102102.81;6093062;23;20049;-71
2023/05/18 01:28:26;;;;;;;5.10;4.75;;;;;;;5.53;89.55;102102.88;6106260;23;20045;-71
2023/05/18 01:30:53;;;;;;;6.07;5.47;;;;;;;5.47;90.38;102092.50;6120656;23;20070;-70
2023/05/18 01:33:20;;;;;;;4.35;4.07;;;;;;;5.50;90.02;102094.22;6096113;23;20024;-71
2023/05/18 01:35:49;;;;;;;4.60;4.30;;;;;;;5.06;89.87;102015.63;6122938;23;20031;-71
2023/05/18 01:38:23;;;;;;;4.25;3.90;;;;;;;5.48;89.80;102091.63;6088714;23;20017;-71
2023/05/18 01:40:58;;;;;;;8.93;4.57;;;;;;;5.50;90.18;102084.66;6064784;23;20037;-70
2023/05/18 01:43:32;;;;;;;4.38;4.18;;;;;;;5.09;90.15;102014.72;6113778;23;20033;-70
2023/05/18 01:46:07;;;;;;;4.65;4.35;;;;;;;5.54;90.72;102083.75;6071377;23;20041;-70
2023/05/18 01:48:37;;;;;;;6.07;4.95;;;;;;;5.09;90.63;102010.41;6087789;23;20029;-70
2023/05/18 01:51:05;;;;;;;4.13;3.92;;;;;;;5.37;90.21;102056.97;6113661;23;20074;-73
2023/05/18 01:53:38;;;;;;;6.15;4.90;;;;;;;4.32;90.36;101909.53;6115995;23;20025;-70
2023/05/18 01:56:06;;;;;;;;;;;;;;;5.49;91.04;102080.34;6121392;23;20485;-70
2023/05/18 01:58:36;;;;;;;4.10;3.72;;;;;;;5.44;91.00;102082.09;6093521;23;20747;-70
2023/05/18 02:01:03;;;;;;;5.35;4.88;;;;;;;5.33;92.00;102063.09;6118354;23;20033;-71
2023/05/18 02:03:31;;;;;;;6.78;4.65;;;;;;;5.30;91.21;102070.94;6090634;23;20026;-71
2023/05/18 02:05:58;;;;;;;5.25;4.65;;;;;;;5.34;92.48;102076.09;6117357;23;20119;-71
2023/05/18 02:08:25;;;;;;;5.00;4.63;;;;;;;5.39;92.82;102094.28;6094535;23;20273;-69
2023/05/18 02:10:51;;;;;;;4.18;3.97;;;;;;;5.35;91.82;102096.06;6109756;23;20033;-69
2023/05/18 02:13:20;;;;;;;15.80;5.35;;;;;;;5.26;93.17;102083.13;6096417;23;20087;-70
2023/05/18 02:15:46;;;;;;;16.17;5.28;;;;;;;4.92;92.48;102028.72;6118837;23;20050;-70
2023/05/18 02:18:13;;;;;;;4.60;4.32;;;;;;;5.12;93.52;102077.16;6099975;23;20021;-70
2023/05/18 02:20:39;;;;;;;4.20;3.80;;;;;;;5.10;93.73;102076.31;6118460;23;20016;-70
2023/05/18 02:23:06;;;;;;;4.18;3.97;;;;;;;4.73;94.27;102032.31;6116223;23;20571;-69
2023/05/18 02:25:32;;;;;;;4.53;4.18;;;;;;;4.93;94.27;102063.41;6087453;23;20069;-71
2023/05/18 02:27:59;;;;;;;6.65;5.00;;;;;;;4.85;94.37;102057.38;6120991;23;20098;-70
2023/05/18 02:30:25;;;;;;;5.13;4.72;;;;;;;4.99;94.67;102086.75;6117839;23;20563;-71
2023/05/18 02:32:56;;;;;;;4.80;4.10;;;;;;;4.93;93.81;102086.81;6112144;23;20056;-71
2023/05/18 02:35:22;;;;;;;6.70;4.57;;;;;;;4.90;95.22;102087.69;6087640;23;20046;-69
2023/05/18 02:37:49;;;;;;;4.40;4.10;;;;;;;4.76;95.44;102069.56;6110567;23;20087;-70
2023/05/18 02:40:15;;;;;;;5.15;4.75;;;;;;;4.69;95.63;102057.50;6095716;23;20063;-71
2023/05/18 02:42:42;;;;;;;4.38;4.18;;;;;;;4.61;96.05;102059.28;6119986;23;20037;-70
2023/05/18 02:45:09;;;;;;;4.38;4.18;;;;;;;4.79;96.71;102089.50;6090726;23;20516;-70
2023/05/18 02:47:35;;;;;;;4.85;4.55;;;;;;;4.75;97.87;102087.78;6087449;23;20468;-70
2023/05/18 02:50:02;;;;;;;19.30;5.15;;;;;;;4.74;98.76;102093.88;6088153;23;20029;-71
2023/05/18 02:52:29;;;;;;;6.03;5.50;;;;;;;3.55;98.43;101899.56;6113675;23;20091;-70
2023/05/18 02:54:55;;;;;;;4.95;4.55;;;;;;;4.64;100.00;102094.78;6111111;23;20058;-70
2023/05/18 02:57:22;;;;;;;4.70;4.40;;;;;;;4.40;100.00;102065.44;6085710;23;20280;-70
2023/05/18 02:59:48;;;;;;;4.40;4.10;;;;;;;4.59;100.00;102100.88;6112748;23;20091;-69
2023/05/18 03:02:15;;;;;;;5.25;4.85;;;;;;;3.39;100.00;101897.91;6112510;23;20029;-70
2023/05/18 03:04:42;;;;;;;5.00;4.70;;;;;;;4.52;100.00;102093.97;6114850;23;20049;-70
2023/05/18 03:07:09;;;;;;;6.07;5.68;;;;;;;4.47;100.00;102092.25;6113730;23;20021;-70
2023/05/18 03:09:36;;;;;;;4.15;3.95;;;;;;;4.22;100.00;102055.13;6112940;23;20037;-71
2023/05/18 03:12:03;;;;;;;4.20;4.00;;;;;;;4.25;100.00;102068.09;6094297;23;20497;-70
2023/05/18 03:14:30;;;;;;;4.43;4.20;;;;;;;4.34;100.00;102094.06;6086337;23;20061;-71
2023/05/18 03:16:56;;;;;;;4.03;3.83;;;;;;;4.12;100.00;102056.91;6094999;23;20572;-70
2023/05/18 03:19:23;;;;;;;4.65;4.35;;;;;;;3.67;100.00;101991.22;6113677;23;20463;-71
2023/05/18 03:21:50;;;;;;;4.40;4.10;;;;;;;4.25;100.00;102086.28;6094963;23;20248;-71
2023/05/18 03:24:16;;;;;;;4.53;4.22;;;;;;;4.17;100.00;102079.41;6119810;23;20040;-71
2023/05/18 03:26:43;;;;;;;4.07;3.80;;;;;;;3.70;100.00;102006.81;6087774;23;20017;-71
2023/05/18 03:29:12;;;;;;;4.70;4.50;;;;;;;3.54;100.00;101987.81;6089129;23;20058;-71
2023/05/18 03:31:39;;;;;;;3.90;3.70;;;;;;;2.83;100.00;101896.25;6115654;23;20017;-70
2023/05/18 03:34:06;;;;;;;4.88;3.95;;;;;;;4.08;100.00;102081.16;6117040;23;20665;-70
2023/05/18 03:36:34;;;;;;;5.30;4.80;;;;;;;3.87;100.00;102045.69;6081390;23;20018;-70
2023/05/18 03:39:01;;;;;;;4.65;4.35;;;;;;;4.09;100.00;102083.75;6118625;23;20147;-70
2023/05/18 03:41:28;;;;;;;7.38;4.70;;;;;;;4.10;100.00;102089.81;6115395;23;20036;-70
2023/05/18 03:43:55;;;;;;;5.53;4.75;;;;;;;4.09;100.00;102080.28;6120900;23;20022;-70
2023/05/18 03:46:22;;;;;;;4.00;3.80;;;;;;;4.08;100.00;102084.59;6105442;23;20016;-71
2023/05/18 03:48:48;;;;;;;4.85;4.10;;;;;;;3.64;100.00;102014.63;6097778;23;20034;-71
2023/05/18 03:51:15;;;;;;;4.43;4.13;;;;;;;4.20;100.00;102089.75;6113973;23;20845;-71
2023/05/18 03:53:41;;;;;;;6.03;4.03;;;;;;;3.35;100.00;101951.53;6117614;23;20031;-70
2023/05/18 03:56:08;;;;;;;4.00;3.80;;;;;;;4.31;100.00;102102.75;6109243;23;20050;-70
2023/05/18 03:58:35;;;;;;;4.15;3.92;;;;;;;4.30;100.00;102090.59;6089037;23;20030;-71
2023/05/18 04:01:01;;;;;;;4.18;3.97;;;;;;;4.08;100.00;102063.81;6092223;23;20037;-71
2023/05/18 04:03:29;;;;;;;4.32;4.13;;;;;;;4.51;100.00;102115.66;6090046;23;20033;-71
2023/05/18 04:05:55;;;;;;;4.90;4.47;;;;;;;4.18;100.00;102043.88;6093952;23;20029;-70
2023/05/18 04:08:24;;;;;;;7.43;6.82;;;;;;;4.79;100.00;102126.78;6110356;23;20091;-71
2023/05/18 04:10:51;;;;;;;13.55;5.18;;;;;;;4.47;100.00;102032.47;6089870;23;20064;-71
2023/05/18 04:13:17;;;;;;;6.82;4.85;;;;;;;5.45;100.00;102143.69;6084988;23;20519;-72
2023/05/18 04:15:44;;;;;;;10.80;4.72;;;;;;;5.68;100.00;102132.25;6124203;23;20025;-70
2023/05/18 04:18:12;;;;;;;9.05;4.75;;;;;;;6.03;100.00;102149.31;6123779;23;20028;-70
2023/05/18 04:20:41;;;;;;;4.60;4.30;;;;;;;6.15;100.00;102084.91;6083654;23;20362;-70
2023/05/18 04:23:08;;;;;;;5.28;4.88;;;;;;;7.02;99.30;102154.25;6122705;23;20029;-70
2023/05/18 04:25:35;;;;;;;6.45;4.50;;;;;;;7.53;96.41;102149.97;6121519;23;20013;-70
2023/05/18 04:28:02;;;;;;;5.55;5.03;;;;;;;7.68;92.74;102124.50;6101463;23;20037;-71
2023/05/18 04:30:29;;;;;;;16.60;15.57;;;;;;;8.01;89.67;102086.41;6069296;23;20029;-72
2023/05/18 04:32:59;;;;;;;6.18;5.68;;;;;;;8.54;86.53;102099.34;6039138;23;20029;-72
2023/05/18 04:35:26;;;;;;;5.88;5.32;;;;;;;8.18;83.99;101971.91;6085625;23;20038;-71
2023/05/18 04:37:53;;;;;;;4.70;4.40;;;;;;;8.94;80.99;102043.47;6116822;23;20079;-72
2023/05/18 04:40:20;;;;;;;5.28;4.97;;;;;;;9.50;79.43;102045.59;6098876;23;20026;-72
2023/05/18 04:42:46;;;;;;;5.03;4.63;;;;;;;9.71;76.91;102024.03;6116121;23;20048;-72
2023/05/18 04:45:18;;;;;;;9.88;5.45;;;;;;;8.94;74.97;101827.03;6097953;23;20604;-73
2023/05/18 04:47:46;;;;;;;6.07;5.07;;;;;;;9.79;73.74;101890.97;6125425;23;20203;-72
2023/05/18 04:50:17;;;;;;;5.40;5.00;;;;;;;10.90;72.06;101986.41;6098422;23;20013;-72
2023/05/18 04:52:47;;;;;;;9.27;5.43;;;;;;;11.21;70.43;101957.34;6116486;23;20120;-72
2023/05/18 04:55:24;;;;;;;6.05;5.45;;;;;;;11.67;69.08;101963.59;6116454;23;20021;-72
2023/05/18 04:57:55;;;;;;;6.57;5.97;;;;;;;11.33;66.36;101841.28;6091841;23;20509;-72
2023/05/18 05:00:23;;;;;;;6.72;6.13;;;;;;;12.41;65.89;101904.69;6115298;23;20070;-72
2023/05/18 05:02:50;;;;;;;6.57;5.97;;;;;;;12.80;64.35;101890.78;6100238;23;20032;-72
2023/05/18 05:05:17;;;;;;;6.20;5.68;;;;;;;12.96;62.89;101839.16;6089721;23;20022;-72
2023/05/18 05:07:44;;;;;;;6.32;5.82;;;;;;;13.24;62.08;101819.47;6121235;23;20087;-73
2023/05/18 05:10:10;;;;;;;5.93;5.47;;;;;;;13.16;60.34;101752.13;6113548;23;20048;-73
2023/05/18 05:12:37;;;;;;;6.38;5.70;;;;;;;13.35;61.06;101785.59;6090301;23;20028;-72
2023/05/18 05:15:04;;;;;;;6.65;6.03;;;;;;;13.06;59.86;101678.84;6115219;23;20033;-73
2023/05/18 05:17:30;;;;;;;11.30;6.10;;;;;;;13.78;59.72;101767.72;6111598;23;20400;-73
2023/05/18 05:19:57;;;;;;;6.13;5.70;;;;;;;13.75;58.82;101707.19;6114323;23;20059;-73
2023/05/18 05:22:23;;;;;;;6.10;5.70;;;;;;;14.56;57.67;101760.34;6089680;23;20014;-73
2023/05/18 05:24:50;;;;;;;6.25;5.63;;;;;;;14.56;57.37;101707.50;6125248;23;20581;-72
2023/05/18 05:27:17;;;;;;;12.70;6.05;;;;;;;14.58;56.19;101667.81;6086054;23;20032;-73
2023/05/18 05:29:49;;;;;;;5.85;5.40;;;;;;;14.68;55.43;101643.44;6121925;23;20056;-73
2023/05/18 05:32:15;;;;;;;5.65;5.35;;;;;;;14.72;54.95;101630.94;6117876;23;20491;-73
2023/05/18 05:34:46;;;;;;;6.20;5.80;;;;;;;14.90;54.39;101623.78;6091144;23;20037;-72
2023/05/18 05:37:13;;;;;;;6.65;6.05;;;;;;;14.25;53.89;101441.56;6114998;23;20452;-72
2023/05/18 05:39:39;;;;;;;7.25;6.22;;;;;;;14.56;53.31;101467.13;6085664;23;20357;-72
2023/05/18 05:42:07;;;;;;;8.30;6.35;;;;;;;13.55;53.89;101339.81;6093660;23;20025;-72
2023/05/18 05:44:34;;;;;;;7.25;6.53;;;;;;;14.91;54.17;101559.38;6088518;23;20085;-71
2023/05/18 05:47:01;;;;;;;6.82;6.25;;;;;;;14.99;54.31;101580.94;6114613;23;20017;-73
2023/05/18 05:49:27;;;;;;;6.53;6.13;;;;;;;14.00;53.21;101371.66;6092386;23;20096;-71
2023/05/18 05:51:54;;;;;;;6.38;5.97;;;;;;;14.54;52.86;101432.00;6112584;23;20031;-70
2023/05/18 05:54:20;;;;;;;8.57;5.72;;;;;;;15.10;53.33;101524.84;6091549;23;20031;-70
2023/05/18 05:56:47;;;;;;;8.07;5.80;;;;;;;14.88;52.26;101464.44;6119601;23;20503;-72
2023/05/18 05:59:14;;;;;;;6.65;6.18;;;;;;;15.48;52.60;101556.13;6084621;23;20082;-72
2023/05/18 06:01:40;;;;;;;6.45;5.90;;;;;;;14.67;52.21;101393.41;6088754;23;20579;-72
2023/05/18 06:04:09;;;;;;;6.65;6.03;;;;;;;13.87;51.75;101242.22;6113434;23;20033;-72
2023/05/18 06:06:37;;;;;;;9.75;6.05;;;;;;;14.47;51.83;101406.88;6092424;23;20032;-72
2023/05/18 06:09:04;;;;;;;6.45;5.70;;;;;;;14.16;52.51;101435.00;6113454;23;20028;-72
2023/05/18 06:11:30;;;;;;;6.90;6.40;;;;;;;13.53;52.94;101426.06;6112280;23;20285;-72
2023/05/18 06:13:56;;;;;;;6.28;5.78;;;;;;;13.74;53.33;101532.22;6091163;23;20557;-71
2023/05/18 06:16:24;;;;;;;8.30;6.25;;;;;;;13.82;54.42;101568.75;6086581;23;20010;-71
2023/05/18 06:18:50;;;;;;;6.75;6.25;;;;;;;13.25;56.11;101597.09;6109509;23;20577;-71
2023/05/18 06:21:17;;;;;;;6.22;5.60;;;;;;;12.72;56.71;101643.53;6055769;23;20022;-71
2023/05/18 06:23:43;;;;;;;6.15;5.75;;;;;;;12.34;56.39;101575.88;6116717;23;20037;-71
2023/05/18 06:26:10;;;;;;;6.30;5.57;;;;;;;12.44;58.13;101729.03;6110889;23;20022;-71
2023/05/18 06:28:36;;;;;;;7.10;5.95;;;;;;;11.74;59.37;101703.88;6109756;23;20056;-71
2023/05/18 06:31:03;;;;;;;6.30;5.80;;;;;;;11.32;59.82;101700.28;6114956;23;20024;-71
2023/05/18 06:33:29;;;;;;;10.48;5.78;;;;;;;10.86;60.74;101717.78;6110932;23;20192;-70
2023/05/18 06:35:56;;;;;;;6.22;5.72;;;;;;;10.82;61.17;101720.59;6118410;23;20012;-71
2023/05/18 06:38:23;;;;;;;12.80;5.80;;;;;;;11.60;61.49;101848.19;6113189;23;20029;-70
2023/05/18 06:40:49;;;;;;;11.65;6.00;;;;;;;11.23;60.88;101795.25;6113535;23;20711;-72
2023/05/18 06:43:16;;;;;;;12.65;5.90;;;;;;;10.97;62.59;101827.72;6116024;23;20401;-70
2023/05/18 06:45:42;;;;;;;6.05;5.55;;;;;;;11.18;61.43;101839.22;6087846;23;20017;-72
2023/05/18 06:48:08;;;;;;;12.80;6.43;;;;;;;10.80;62.32;101819.56;6085534;23;20115;-72
2023/05/18 06:50:35;;;;;;;6.88;5.30;;;;;;;10.98;62.61;101876.69;6114073;23;20050;-73
2023/05/18 06:53:01;;;;;;;5.85;5.30;;;;;;;11.32;62.45;101917.56;6111314;23;20029;-72
2023/05/18 06:55:28;;;;;;;8.35;5.20;;;;;;;11.26;61.90;101870.47;6113301;23;20648;-72
2023/05/18 06:57:57;;;;;;;10.02;5.60;;;;;;;11.27;62.67;101883.56;6087685;23;20050;-72
2023/05/18 07:00:23;;;;;;;9.57;5.45;;;;;;;11.43;62.22;101902.25;6083460;23;20071;-72
2023/05/18 07:02:50;;;;;;;8.65;5.55;;;;;;;11.29;61.43;101858.09;6088096;23;20407;-72
2023/05/18 07:05:17;;;;;;;5.40;5.00;;;;;;;11.72;60.79;101874.88;6117822;23;20676;-70
2023/05/18 07:07:43;;;;;;;7.05;5.53;;;;;;;11.91;60.04;101858.44;6114437;23;20115;-72
2023/05/18 07:10:10;;;;;;;6.18;5.75;;;;;;;11.57;60.29;101794.81;6059917;23;21431;-72
2023/05/18 07:12:36;;;;;;;6.22;5.72;;;;;;;11.60;60.71;101866.59;6112285;23;20119;-72
2023/05/18 07:15:03;;;;;;;5.65;5.25;;;;;;;11.83;59.64;101836.81;6085253;23;20029;-70
2023/05/18 07:17:30;;;;;;;7.00;5.68;;;;;;;11.44;59.15;101743.63;6115208;23;21075;-70
2023/05/18 07:19:56;;;;;;;6.43;5.65;;;;;;;12.13;58.91;101858.44;6118178;23;20025;-71
2023/05/18 07:22:23;;;;;;;5.93;5.43;;;;;;;12.24;59.72;101858.00;6120000;23;20029;-70
2023/05/18 07:24:49;;;;;;;5.63;5.22;;;;;;;11.82;59.70;101806.13;6110503;23;20448;-72
2023/05/18 07:27:16;;;;;;;8.32;5.97;;;;;;;12.10;60.66;101914.66;6087946;23;21141;-72
2023/05/18 07:29:42;;;;;;;6.05;5.55;;;;;;;11.90;59.94;101844.41;6109287;23;20451;-70
2023/05/18 07:32:09;;;;;;;6.10;5.68;;;;;;;11.62;59.05;101759.59;6086520;23;20033;-73
2023/05/18 07:34:35;;;;;;;7.80;5.50;;;;;;;12.59;58.26;101856.56;6115520;23;20086;-70
2023/05/18 07:37:02;;;;;;;5.88;5.47;;;;;;;12.64;58.78;101844.03;6092588;23;20080;-70
2023/05/18 07:39:28;;;;;;;7.68;5.35;;;;;;;12.42;57.67;101783.53;6120996;23;20372;-73
2023/05/18 07:41:55;;;;;;;7.07;5.13;;;;;;;11.63;56.35;101583.38;6123143;23;20106;-71
2023/05/18 07:44:22;;;;;;;5.18;4.88;;;;;;;12.11;56.13;101673.44;6114414;23;20025;-70
2023/05/18 07:46:50;;;;;;;5.40;5.10;;;;;;;12.08;57.14;101713.88;6095658;23;21884;-73
2023/05/18 07:49:16;;;;;;;5.70;5.30;;;;;;;12.24;56.55;101706.19;6092741;23;20036;-73
2023/05/18 07:51:43;;;;;;;5.50;5.18;;;;;;;12.27;55.25;101648.16;6098825;23;20036;-71
2023/05/18 07:54:09;;;;;;;6.03;5.50;;;;;;;12.75;55.45;101715.38;6116359;23;20436;-71
2023/05/18 07:56:36;;;;;;;7.50;5.70;;;;;;;12.36;54.25;101567.94;6087171;23;20056;-71
2023/05/18 07:59:02;;;;;;;6.35;5.53;;;;;;;11.62;53.82;101444.09;6092117;23;20059;-71
2023/05/18 08:01:30;;;;;;;7.15;5.13;;;;;;;12.85;54.43;101705.28;6115254;23;20029;-71
2023/05/18 08:03:57;;;;;;;5.30;5.00;;;;;;;13.07;54.80;101733.25;6119252;23;20517;-71
2023/05/18 08:06:24;;;;;;;8.25;5.38;;;;;;;12.53;55.10;101648.78;6126533;23;20044;-71
2023/05/18 08:08:50;;;;;;;5.30;4.90;;;;;;;11.77;55.03;101559.13;6093505;23;20102;-70
2023/05/18 08:11:17;;;;;;;5.50;5.15;;;;;;;12.95;54.71;101703.91;6117733;23;20013;-71
2023/05/18 08:13:43;;;;;;;8.20;5.75;;;;;;;12.47;54.14;101567.44;6112927;23;20036;-71
2023/05/18 08:16:10;;;;;;;6.75;5.05;;;;;;;12.53;55.62;101696.19;6087099;23;20281;-70
2023/05/18 08:18:39;;;;;;;5.70;5.30;;;;;;;12.64;53.03;101593.84;6092046;23;20630;-71
2023/05/18 08:21:08;;;;;;;5.70;5.30;;;;;;;12.77;52.45;101573.06;6117802;23;20320;-71
2023/05/18 08:23:35;;;;;;;5.93;5.30;;;;;;;13.25;52.64;101616.44;6073366;23;20088;-71
2023/05/18 08:26:02;;;;;;;5.93;5.40;;;;;;;12.95;52.11;101553.75;6120059;23;20097;-70
2023/05/18 08:28:29;;;;;;;5.10;4.80;;;;;;;12.94;52.94;101624.94;6118364;23;20025;-71
2023/05/18 08:30:56;;;;;;;8.63;5.38;;;;;;;13.24;52.79;101648.97;6120117;23;20611;-70
2023/05/18 08:33:23;;;;;;;5.75;5.25;;;;;;;13.50;53.55;101769.03;6088025;23;20080;-70
2023/05/18 08:35:49;;;;;;;5.43;5.07;;;;;;;13.37;51.13;101559.66;6119379;23;20033;-71
2023/05/18 08:38:16;;;;;;;6.78;6.18;;;;;;;13.43;51.45;101619.09;6115334;23;20017;-71
2023/05/18 08:41:06;;;;;;;5.85;5.32;;;;;;;13.73;49.85;101548.13;6094067;23;20080;-71
2023/05/18 08:43:36;;;;;;;6.70;5.97;;;;;;;13.57;50.59;101591.13;6114306;23;20043;-71
2023/05/18 08:46:12;;;;;;;6.15;5.63;;;;;;;13.53;50.78;101594.84;6090707;23;20025;-71
2023/05/18 08:48:42;;;;;;;5.35;5.05;;;;;;;13.72;50.19;101580.72;6114958;23;20069;-72
2023/05/18 08:51:10;;;;;;;7.95;5.70;;;;;;;13.84;48.42;101514.13;6099014;23;20077;-71
2023/05/18 08:53:37;;;;;;;6.15;5.50;;;;;;;14.10;49.45;101581.38;6115871;23;20120;-71
2023/05/18 08:56:04;;;;;;;5.47;5.07;;;;;;;14.42;47.88;101591.16;6087373;23;20721;-71
2023/05/18 08:58:36;;;;;;;6.20;5.70;;;;;;;14.28;47.81;101561.06;6114551;23;20060;-71
2023/05/18 09:01:03;;;;;;;6.13;5.63;;;;;;;14.16;47.66;101527.41;6098026;23;20024;-71
2023/05/18 09:03:30;;;;;;;7.90;5.63;;;;;;;14.17;48.53;101592.44;6121954;23;20033;-71
2023/05/18 09:05:58;;;;;;;11.45;6.07;;;;;;;14.39;49.59;101634.41;6117710;23;20018;-71
2023/05/18 09:08:25;;;;;;;5.53;5.15;;;;;;;14.49;48.88;101626.84;6087858;23;20052;-71
2023/05/18 09:10:56;;;;;;;6.43;5.75;;;;;;;13.08;48.92;101424.00;6119285;23;20045;-71
2023/05/18 09:13:23;;;;;;;6.15;5.75;;;;;;;14.30;48.37;101575.03;6084155;23;20459;-74
2023/05/18 09:15:50;;;;;;;8.13;5.32;;;;;;;13.80;47.93;101486.22;6120239;23;20024;-71
2023/05/18 09:18:16;;;;;;;5.85;5.35;;;;;;;14.62;49.81;101711.63;6092625;23;20050;-71
2023/05/18 09:20:44;;;;;;;6.18;5.68;;;;;;;14.43;49.26;101645.66;6090200;23;20421;-71
2023/05/18 09:23:11;;;;;;;5.65;5.22;;;;;;;14.07;47.81;101517.31;6100527;23;20029;-70
2023/05/18 09:25:43;;;;;;;7.63;5.22;;;;;;;14.09;48.54;101570.88;6115754;23;20018;-71
2023/05/18 09:28:12;;;;;;;5.93;5.38;;;;;;;14.70;48.18;101656.59;6091376;23;20595;-71
2023/05/18 09:30:40;;;;;;;11.90;5.70;;;;;;;15.12;46.83;101602.28;6120219;23;20088;-71
2023/05/18 09:33:18;;;;;;;6.05;5.57;;;;;;;14.76;47.25;101569.91;6111383;23;20022;-71
2023/05/18 09:35:47;;;;;;;5.65;5.35;;;;;;;14.14;48.51;101542.47;6089895;23;20088;-71
2023/05/18 09:38:20;;;;;;;5.97;5.45;;;;;;;14.39;50.13;101736.56;6116760;23;20013;-71
2023/05/18 09:40:48;;;;;;;5.90;5.50;;;;;;;14.36;49.85;101685.59;6090139;23;20026;-71
2023/05/18 09:43:17;;;;;;;5.82;5.30;;;;;;;14.68;48.81;101701.56;6115831;23;20047;-71
2023/05/18 09:45:46;;;;;;;8.27;5.40;;;;;;;14.65;49.31;101711.44;6088575;23;20037;-70
2023/05/18 09:48:16;;;;;;;6.13;5.28;;;;;;;14.60;49.06;101690.56;6114014;23;20566;-70
2023/05/18 09:50:43;;;;;;;5.88;5.35;;;;;;;14.31;49.03;101597.88;6097701;23;20476;-70
2023/05/18 09:53:12;;;;;;;5.90;5.32;;;;;;;14.34;48.33;101610.03;6115902;23;20030;-71
2023/05/18 09:55:47;;;;;;;5.70;5.25;;;;;;;14.52;47.53;101616.97;6095129;23;20132;-70
2023/05/18 09:58:14;;;;;;;5.72;5.40;;;;;;;14.63;46.95;101597.06;6115922;23;20117;-70
2023/05/18 10:00:43;;;;;;;6.72;6.13;;;;;;;14.90;47.74;101695.13;6117066;23;20025;-73
2023/05/18 10:03:22;;;;;;;7.72;6.03;;;;;;;15.41;46.31;101637.63;6116459;23;20047;-70
2023/05/18 10:05:49;;;;;;;7.72;6.03;;;;;;;14.92;47.59;101640.41;6098879;23;20027;-70
2023/05/18 10:08:16;;;;;;;6.00;5.63;;;;;;;14.51;46.97;101557.16;6107089;23;20041;-70
2023/05/18 10:10:45;;;;;;;7.03;5.72;;;;;;;14.69;46.80;101557.97;6101606;23;20029;-70
2023/05/18 10:13:18;;;;;;;6.10;5.47;;;;;;;14.76;47.82;101630.66;6111489;23;20237;-70
2023/05/18 10:15:46;;;;;;;6.13;5.50;;;;;;;15.22;48.13;101724.25;6060429;23;20109;-71
2023/05/18 10:18:19;;;;;;;6.28;5.82;;;;;;;15.22;47.72;101690.72;6122663;23;20040;-70
2023/05/18 10:20:47;;;;;;;5.78;5.47;;;;;;;15.78;45.56;101671.72;6092076;23;20082;-72
2023/05/18 10:23:14;;;;;;;7.95;5.75;;;;;;;15.77;44.62;101607.34;6115437;23;20021;-71
2023/05/18 10:25:44;;;;;;;6.22;5.75;;;;;;;15.44;47.42;101726.56;6098835;23;20515;-71
2023/05/18 10:28:11;;;;;;;6.25;5.63;;;;;;;15.94;45.34;101638.97;6104842;23;20025;-71
2023/05/18 10:30:42;;;;;;;5.97;5.57;;;;;;;16.04;44.40;101618.06;6118647;23;20022;-71
2023/05/18 10:33:10;;;;;;;6.03;5.53;;;;;;;14.87;46.21;101548.13;6087354;23;20078;-71
2023/05/18 10:35:54;;;;;;;6.28;5.68;;;;;;;15.43;45.10;101521.16;6113818;23;20020;-71
2023/05/18 10:38:22;;;;;;;6.15;5.75;;;;;;;16.11;46.76;101716.53;6089412;23;20031;-71
2023/05/18 10:40:52;;;;;;;7.78;6.00;;;;;;;16.00;46.76;101718.97;6116927;23;20021;-72
2023/05/18 10:43:22;;;;;;;7.63;6.03;;;;;;;15.24;46.73;101622.72;6087539;23;20547;-72
2023/05/18 10:45:54;;;;;;;7.88;7.18;;;;;;;15.55;45.49;101586.56;6119201;23;20067;-73
2023/05/18 10:48:22;;;;;;;8.30;6.00;;;;;;;16.18;45.73;101680.81;6086810;23;20018;-73
2023/05/18 10:50:51;;;;;;;7.10;5.90;;;;;;;16.37;45.30;101717.63;6116999;23;20027;-73
2023/05/18 10:53:23;;;;;;;6.63;6.13;;;;;;;16.51;44.73;101714.13;6114751;23;20017;-73
2023/05/18 10:55:50;;;;;;;6.72;6.07;;;;;;;16.08;43.24;101536.66;6088082;23;20502;-72
2023/05/18 10:58:19;;;;;;;7.43;5.60;;;;;;;16.70;44.75;101703.28;6114419;23;20509;-72
2023/05/18 11:00:50;;;;;;;7.68;6.18;;;;;;;15.84;44.35;101544.31;6082893;23;20050;-72
2023/05/18 11:03:18;;;;;;;6.97;5.90;;;;;;;16.08;44.12;101566.63;6115124;23;20723;-73
2023/05/18 11:06:05;;;;;;;5.97;5.68;;;;;;;15.91;47.28;101741.53;6057515;23;20562;-73
2023/05/18 11:08:32;;;;;;;6.72;6.10;;;;;;;15.66;46.95;101660.03;6113389;23;20464;-73
2023/05/18 11:11:03;;;;;;;6.43;5.78;;;;;;;15.81;46.35;101672.38;6112394;23;20029;-71
2023/05/18 11:13:31;;;;;;;5.70;5.40;;;;;;;15.44;46.95;101671.00;6116291;23;21113;-73
2023/05/18 11:15:58;;;;;;;7.70;5.93;;;;;;;15.56;45.32;101597.06;6113110;23;20558;-73
2023/05/18 11:18:43;;;;;;;10.20;6.55;;;;;;;16.39;45.05;101726.31;6105290;23;20503;-71
2023/05/18 11:21:20;;;;;;;6.32;5.80;;;;;;;16.75;43.26;101621.63;6112636;23;20017;-71
2023/05/18 11:24:19;;;;;;;6.35;5.93;;;;;;;16.68;44.40;101679.50;6084396;23;20065;-71
2023/05/18 11:26:53;;;;;;;6.03;5.70;;;;;;;16.86;45.79;101783.59;6113024;23;20068;-71
2023/05/18 11:29:22;;;;;;;6.60;6.07;;;;;;;16.69;45.39;101704.19;6088812;23;21366;-71
2023/05/18 11:31:53;;;;;;;6.63;6.22;;;;;;;16.61;46.89;101765.63;6109199;23;20031;-71
2023/05/18 11:34:43;;;;;;;6.00;5.60;;;;;;;16.25;46.02;101675.97;6093213;23;20029;-71